sensor_id;sensor_type;location;lat;lon;timestamp;temperature;humidity
14140;DHT22;7150;53.514;9.988;2023-02-28T00:00:08;10.50;62.80
14140;DHT22;7150;53.514;9.988;2023-02-28T00:02:38;10.50;62.90
14140;DHT22;7150;53.514;9.988;2023-02-28T00:05:04;10.50;62.90
14140;DHT22;7150;53.514;9.988;2023-02-28T00:07:31;10.40;63.00
14140;DHT22;7150;53.514;9.988;2023-02-28T00:09:56;10.40;63.30
14140;DHT22;7150;53.514;9.988;2023-02-28T00:12:22;10.40;63.30
14140;DHT22;7150;53.514;9.988;2023-02-28T00:14:48;10.40;63.30
14140;DHT22;7150;53.514;9.988;2023-02-28T00:17:14;10.40;63.30
14140;DHT22;7150;53.514;9.988;2023-02-28T00:19:39;10.40;63.30
14140;DHT22;7150;53.514;9.988;2023-02-28T00:22:05;10.30;63.30
14140;DHT22;7150;53.514;9.988;2023-02-28T00:24:31;10.30;63.40
14140;DHT22;7150;53.514;9.988;2023-02-28T00:26:56;10.40;63.40
14140;DHT22;7150;53.514;9.988;2023-02-28T00:29:22;10.30;63.30
14140;DHT22;7150;53.514;9.988;2023-02-28T00:31:47;10.40;63.30
14140;DHT22;7150;53.514;9.988;2023-02-28T00:34:12;10.30;63.20
14140;DHT22;7150;53.514;9.988;2023-02-28T00:36:38;10.40;63.30
14140;DHT22;7150;53.514;9.988;2023-02-28T00:39:04;10.40;63.20
14140;DHT22;7150;53.514;9.988;2023-02-28T00:41:29;10.40;63.40
14140;DHT22;7150;53.514;9.988;2023-02-28T00:43:55;10.40;63.40
14140;DHT22;7150;53.514;9.988;2023-02-28T00:46:20;10.40;63.50
14140;DHT22;7150;53.514;9.988;2023-02-28T00:48:45;10.40;63.80
14140;DHT22;7150;53.514;9.988;2023-02-28T00:51:11;10.40;64.00
14140;DHT22;7150;53.514;9.988;2023-02-28T00:53:36;10.30;64.00
14140;DHT22;7150;53.514;9.988;2023-02-28T00:56:02;10.30;64.20
14140;DHT22;7150;53.514;9.988;2023-02-28T00:58:28;10.30;64.30
14140;DHT22;7150;53.514;9.988;2023-02-28T01:00:54;10.30;64.30
14140;DHT22;7150;53.514;9.988;2023-02-28T01:03:20;10.30;64.20
14140;DHT22;7150;53.514;9.988;2023-02-28T01:05:46;10.20;64.10
14140;DHT22;7150;53.514;9.988;2023-02-28T01:08:12;10.20;64.20
14140;DHT22;7150;53.514;9.988;2023-02-28T01:10:39;10.20;64.40
14140;DHT22;7150;53.514;9.988;2023-02-28T01:13:04;10.20;64.70
14140;DHT22;7150;53.514;9.988;2023-02-28T01:15:30;10.20;64.80
14140;DHT22;7150;53.514;9.988;2023-02-28T01:17:57;10.20;65.00
14140;DHT22;7150;53.514;9.988;2023-02-28T01:20:23;10.10;65.00
14140;DHT22;7150;53.514;9.988;2023-02-28T01:22:48;10.10;65.30
14140;DHT22;7150;53.514;9.988;2023-02-28T01:25:14;10.10;65.50
14140;DHT22;7150;53.514;9.988;2023-02-28T01:27:39;10.10;65.70
14140;DHT22;7150;53.514;9.988;2023-02-28T01:30:09;10.10;65.90
14140;DHT22;7150;53.514;9.988;2023-02-28T01:32:35;10.00;66.20
14140;DHT22;7150;53.514;9.988;2023-02-28T01:35:01;10.10;66.30
14140;DHT22;7150;53.514;9.988;2023-02-28T01:37:26;10.10;66.30
14140;DHT22;7150;53.514;9.988;2023-02-28T01:39:53;10.10;66.20
14140;DHT22;7150;53.514;9.988;2023-02-28T01:42:18;10.00;65.90
14140;DHT22;7150;53.514;9.988;2023-02-28T01:45:48;10.00;66.00
14140;DHT22;7150;53.514;9.988;2023-02-28T01:48:06;10.00;65.80
14140;DHT22;7150;53.514;9.988;2023-02-28T01:50:39;10.00;65.80
14140;DHT22;7150;53.514;9.988;2023-02-28T01:53:08;10.00;66.00
14140;DHT22;7150;53.514;9.988;2023-02-28T01:55:34;10.00;66.20
14140;DHT22;7150;53.514;9.988;2023-02-28T01:58:02;9.90;67.10
14140;DHT22;7150;53.514;9.988;2023-02-28T02:00:30;9.90;67.20
14140;DHT22;7150;53.514;9.988;2023-02-28T02:02:59;9.90;67.40
14140;DHT22;7150;53.514;9.988;2023-02-28T02:05:28;9.80;67.30
14140;DHT22;7150;53.514;9.988;2023-02-28T02:07:58;9.80;67.40
14140;DHT22;7150;53.514;9.988;2023-02-28T02:10:33;9.80;67.50
14140;DHT22;7150;53.514;9.988;2023-02-28T02:13:30;9.80;67.50
14140;DHT22;7150;53.514;9.988;2023-02-28T02:16:34;9.70;67.50
14140;DHT22;7150;53.514;9.988;2023-02-28T02:33:23;9.30;68.20
14140;DHT22;7150;53.514;9.988;2023-02-28T02:41:53;9.40;68.50
14140;DHT22;7150;53.514;9.988;2023-02-28T02:44:43;9.30;68.40
14140;DHT22;7150;53.514;9.988;2023-02-28T02:47:15;9.30;68.40
14140;DHT22;7150;53.514;9.988;2023-02-28T02:49:46;9.30;68.50
14140;DHT22;7150;53.514;9.988;2023-02-28T02:52:16;9.30;68.60
14140;DHT22;7150;53.514;9.988;2023-02-28T02:54:45;9.30;68.60
14140;DHT22;7150;53.514;9.988;2023-02-28T02:57:17;9.20;68.50
14140;DHT22;7150;53.514;9.988;2023-02-28T02:59:45;9.20;68.70
14140;DHT22;7150;53.514;9.988;2023-02-28T03:02:13;9.20;68.90
14140;DHT22;7150;53.514;9.988;2023-02-28T03:04:48;9.10;68.90
14140;DHT22;7150;53.514;9.988;2023-02-28T03:07:16;9.00;68.90
14140;DHT22;7150;53.514;9.988;2023-02-28T03:09:50;9.00;69.00
14140;DHT22;7150;53.514;9.988;2023-02-28T03:12:16;9.00;69.10
14140;DHT22;7150;53.514;9.988;2023-02-28T03:15:04;8.90;69.30
14140;DHT22;7150;53.514;9.988;2023-02-28T03:17:43;8.80;69.40
14140;DHT22;7150;53.514;9.988;2023-02-28T03:20:27;8.80;69.50
14140;DHT22;7150;53.514;9.988;2023-02-28T03:30:52;8.70;69.70
14140;DHT22;7150;53.514;9.988;2023-02-28T03:33:29;8.70;69.80
14140;DHT22;7150;53.514;9.988;2023-02-28T03:35:58;8.70;69.90
14140;DHT22;7150;53.514;9.988;2023-02-28T03:38:30;8.70;69.90
14140;DHT22;7150;53.514;9.988;2023-02-28T03:41:21;8.70;70.00
14140;DHT22;7150;53.514;9.988;2023-02-28T03:43:56;8.70;70.00
14140;DHT22;7150;53.514;9.988;2023-02-28T03:46:27;8.70;70.20
14140;DHT22;7150;53.514;9.988;2023-02-28T03:49:07;8.60;70.20
14140;DHT22;7150;53.514;9.988;2023-02-28T03:51:34;8.70;70.30
14140;DHT22;7150;53.514;9.988;2023-02-28T03:54:06;8.60;70.30
14140;DHT22;7150;53.514;9.988;2023-02-28T03:56:40;8.60;70.50
14140;DHT22;7150;53.514;9.988;2023-02-28T03:59:22;8.60;70.60
14140;DHT22;7150;53.514;9.988;2023-02-28T04:01:50;8.50;70.60
14140;DHT22;7150;53.514;9.988;2023-02-28T04:04:17;8.50;70.70
14140;DHT22;7150;53.514;9.988;2023-02-28T04:06:43;8.40;70.60
14140;DHT22;7150;53.514;9.988;2023-02-28T04:09:12;8.40;70.70
14140;DHT22;7150;53.514;9.988;2023-02-28T04:11:42;8.40;70.80
14140;DHT22;7150;53.514;9.988;2023-02-28T04:14:10;8.40;70.90
14140;DHT22;7150;53.514;9.988;2023-02-28T04:16:39;8.30;70.90
14140;DHT22;7150;53.514;9.988;2023-02-28T04:19:06;8.40;71.10
14140;DHT22;7150;53.514;9.988;2023-02-28T04:21:37;8.30;71.30
14140;DHT22;7150;53.514;9.988;2023-02-28T04:24:07;8.20;71.50
14140;DHT22;7150;53.514;9.988;2023-02-28T04:26:35;8.10;71.80
14140;DHT22;7150;53.514;9.988;2023-02-28T04:29:02;8.10;71.90
14140;DHT22;7150;53.514;9.988;2023-02-28T04:31:28;8.10;71.90
14140;DHT22;7150;53.514;9.988;2023-02-28T04:33:53;8.10;72.00
14140;DHT22;7150;53.514;9.988;2023-02-28T04:36:19;8.10;72.10
14140;DHT22;7150;53.514;9.988;2023-02-28T04:38:45;8.10;72.20
14140;DHT22;7150;53.514;9.988;2023-02-28T04:41:12;8.10;72.30
14140;DHT22;7150;53.514;9.988;2023-02-28T04:43:38;8.10;72.40
14140;DHT22;7150;53.514;9.988;2023-02-28T04:46:04;8.00;72.50
14140;DHT22;7150;53.514;9.988;2023-02-28T04:48:33;8.00;72.40
14140;DHT22;7150;53.514;9.988;2023-02-28T04:51:07;8.00;72.40
14140;DHT22;7150;53.514;9.988;2023-02-28T04:53:33;8.00;72.50
14140;DHT22;7150;53.514;9.988;2023-02-28T04:55:59;8.00;72.60
14140;DHT22;7150;53.514;9.988;2023-02-28T04:58:25;8.00;72.80
14140;DHT22;7150;53.514;9.988;2023-02-28T05:00:52;8.00;72.90
14140;DHT22;7150;53.514;9.988;2023-02-28T05:03:17;8.00;73.00
14140;DHT22;7150;53.514;9.988;2023-02-28T05:05:43;8.00;73.10
14140;DHT22;7150;53.514;9.988;2023-02-28T05:08:09;8.00;73.10
14140;DHT22;7150;53.514;9.988;2023-02-28T05:10:35;8.00;73.30
14140;DHT22;7150;53.514;9.988;2023-02-28T05:13:00;8.00;73.40
14140;DHT22;7150;53.514;9.988;2023-02-28T05:15:26;7.90;73.50
14140;DHT22;7150;53.514;9.988;2023-02-28T05:17:51;7.90;73.50
14140;DHT22;7150;53.514;9.988;2023-02-28T05:20:17;7.80;73.50
14140;DHT22;7150;53.514;9.988;2023-02-28T05:22:43;7.90;74.30
14140;DHT22;7150;53.514;9.988;2023-02-28T05:25:15;7.80;73.50
14140;DHT22;7150;53.514;9.988;2023-02-28T05:27:41;7.80;73.70
14140;DHT22;7150;53.514;9.988;2023-02-28T05:30:07;7.80;73.80
14140;DHT22;7150;53.514;9.988;2023-02-28T05:32:38;7.80;74.00
14140;DHT22;7150;53.514;9.988;2023-02-28T05:35:08;7.80;74.00
14140;DHT22;7150;53.514;9.988;2023-02-28T05:37:34;7.80;74.30
14140;DHT22;7150;53.514;9.988;2023-02-28T05:39:59;7.80;74.30
14140;DHT22;7150;53.514;9.988;2023-02-28T05:42:25;7.70;74.20
14140;DHT22;7150;53.514;9.988;2023-02-28T05:44:50;7.80;74.40
14140;DHT22;7150;53.514;9.988;2023-02-28T05:47:17;7.70;74.40
14140;DHT22;7150;53.514;9.988;2023-02-28T05:49:42;7.70;74.50
14140;DHT22;7150;53.514;9.988;2023-02-28T05:52:08;7.70;74.60
14140;DHT22;7150;53.514;9.988;2023-02-28T05:54:33;7.70;74.80
14140;DHT22;7150;53.514;9.988;2023-02-28T05:56:59;7.60;74.80
14140;DHT22;7150;53.514;9.988;2023-02-28T05:59:24;7.50;74.80
14140;DHT22;7150;53.514;9.988;2023-02-28T06:01:50;7.50;74.90
14140;DHT22;7150;53.514;9.988;2023-02-28T06:04:19;7.50;74.90
14140;DHT22;7150;53.514;9.988;2023-02-28T06:06:46;7.50;75.10
14140;DHT22;7150;53.514;9.988;2023-02-28T06:09:12;7.40;75.40
14140;DHT22;7150;53.514;9.988;2023-02-28T06:11:38;7.40;75.60
14140;DHT22;7150;53.514;9.988;2023-02-28T06:14:04;7.40;75.70
14140;DHT22;7150;53.514;9.988;2023-02-28T06:16:31;7.50;75.60
14140;DHT22;7150;53.514;9.988;2023-02-28T06:18:58;7.40;75.60
14140;DHT22;7150;53.514;9.988;2023-02-28T06:21:24;7.30;75.80
14140;DHT22;7150;53.514;9.988;2023-02-28T06:23:50;7.30;76.00
14140;DHT22;7150;53.514;9.988;2023-02-28T06:26:16;7.40;76.00
14140;DHT22;7150;53.514;9.988;2023-02-28T06:28:41;7.30;76.00
14140;DHT22;7150;53.514;9.988;2023-02-28T06:31:09;7.30;76.10
14140;DHT22;7150;53.514;9.988;2023-02-28T06:33:36;7.30;76.30
14140;DHT22;7150;53.514;9.988;2023-02-28T06:36:02;7.20;76.40
14140;DHT22;7150;53.514;9.988;2023-02-28T06:38:27;7.30;76.40
14140;DHT22;7150;53.514;9.988;2023-02-28T06:40:57;7.30;76.30
14140;DHT22;7150;53.514;9.988;2023-02-28T06:43:24;7.40;76.40
14140;DHT22;7150;53.514;9.988;2023-02-28T06:45:50;7.40;76.50
14140;DHT22;7150;53.514;9.988;2023-02-28T06:48:19;7.40;76.60
14140;DHT22;7150;53.514;9.988;2023-02-28T06:50:44;7.40;76.60
14140;DHT22;7150;53.514;9.988;2023-02-28T06:53:10;7.30;76.60
14140;DHT22;7150;53.514;9.988;2023-02-28T06:55:37;7.40;76.70
14140;DHT22;7150;53.514;9.988;2023-02-28T06:58:03;7.40;76.80
14140;DHT22;7150;53.514;9.988;2023-02-28T07:00:28;7.40;76.80
14140;DHT22;7150;53.514;9.988;2023-02-28T07:02:54;7.40;76.80
14140;DHT22;7150;53.514;9.988;2023-02-28T07:05:20;7.40;76.90
14140;DHT22;7150;53.514;9.988;2023-02-28T07:07:45;7.40;77.00
14140;DHT22;7150;53.514;9.988;2023-02-28T07:10:12;7.40;77.10
14140;DHT22;7150;53.514;9.988;2023-02-28T07:12:39;7.40;77.20
14140;DHT22;7150;53.514;9.988;2023-02-28T07:15:05;7.50;77.40
14140;DHT22;7150;53.514;9.988;2023-02-28T07:17:31;7.50;77.30
14140;DHT22;7150;53.514;9.988;2023-02-28T07:19:57;7.60;77.40
14140;DHT22;7150;53.514;9.988;2023-02-28T07:22:22;7.60;77.50
14140;DHT22;7150;53.514;9.988;2023-02-28T07:24:48;7.60;77.50
14140;DHT22;7150;53.514;9.988;2023-02-28T07:27:13;7.60;77.60
14140;DHT22;7150;53.514;9.988;2023-02-28T07:29:51;7.60;77.70
14140;DHT22;7150;53.514;9.988;2023-02-28T07:32:17;7.70;77.80
14140;DHT22;7150;53.514;9.988;2023-02-28T07:34:44;7.70;77.70
14140;DHT22;7150;53.514;9.988;2023-02-28T07:37:10;7.70;77.80
14140;DHT22;7150;53.514;9.988;2023-02-28T07:39:35;7.70;77.70
14140;DHT22;7150;53.514;9.988;2023-02-28T07:42:04;7.80;77.70
14140;DHT22;7150;53.514;9.988;2023-02-28T07:44:30;7.80;77.70
14140;DHT22;7150;53.514;9.988;2023-02-28T07:46:55;7.80;77.70
14140;DHT22;7150;53.514;9.988;2023-02-28T07:49:21;7.80;77.60
14140;DHT22;7150;53.514;9.988;2023-02-28T07:51:46;7.80;77.50
14140;DHT22;7150;53.514;9.988;2023-02-28T07:54:12;7.90;77.90
14140;DHT22;7150;53.514;9.988;2023-02-28T07:56:37;8.00;77.50
14140;DHT22;7150;53.514;9.988;2023-02-28T07:59:03;8.00;77.30
14140;DHT22;7150;53.514;9.988;2023-02-28T08:01:28;8.00;77.30
14140;DHT22;7150;53.514;9.988;2023-02-28T08:03:54;8.00;77.30
14140;DHT22;7150;53.514;9.988;2023-02-28T08:06:23;8.10;77.30
14140;DHT22;7150;53.514;9.988;2023-02-28T08:08:50;8.10;77.10
14140;DHT22;7150;53.514;9.988;2023-02-28T08:11:16;8.10;77.00
14140;DHT22;7150;53.514;9.988;2023-02-28T08:13:42;8.20;77.00
14140;DHT22;7150;53.514;9.988;2023-02-28T08:16:09;8.30;77.10
14140;DHT22;7150;53.514;9.988;2023-02-28T08:18:35;8.30;77.00
14140;DHT22;7150;53.514;9.988;2023-02-28T08:21:08;8.30;76.90
14140;DHT22;7150;53.514;9.988;2023-02-28T08:23:34;8.40;76.80
14140;DHT22;7150;53.514;9.988;2023-02-28T08:26:00;8.40;76.70
14140;DHT22;7150;53.514;9.988;2023-02-28T08:28:25;8.50;76.70
14140;DHT22;7150;53.514;9.988;2023-02-28T08:30:51;8.50;76.60
14140;DHT22;7150;53.514;9.988;2023-02-28T08:33:16;8.60;76.50
14140;DHT22;7150;53.514;9.988;2023-02-28T08:35:42;8.60;76.30
14140;DHT22;7150;53.514;9.988;2023-02-28T08:38:07;8.70;76.10
14140;DHT22;7150;53.514;9.988;2023-02-28T08:40:33;8.70;75.90
14140;DHT22;7150;53.514;9.988;2023-02-28T08:42:58;8.70;75.80
14140;DHT22;7150;53.514;9.988;2023-02-28T08:45:25;8.80;75.50
14140;DHT22;7150;53.514;9.988;2023-02-28T08:47:50;8.90;74.70
14140;DHT22;7150;53.514;9.988;2023-02-28T08:50:18;9.00;74.20
14140;DHT22;7150;53.514;9.988;2023-02-28T08:52:43;9.10;73.20
14140;DHT22;7150;53.514;9.988;2023-02-28T08:55:10;9.10;72.50
14140;DHT22;7150;53.514;9.988;2023-02-28T08:57:35;9.20;71.70
14140;DHT22;7150;53.514;9.988;2023-02-28T09:00:01;9.30;71.20
14140;DHT22;7150;53.514;9.988;2023-02-28T09:02:30;9.30;71.00
14140;DHT22;7150;53.514;9.988;2023-02-28T09:04:55;9.40;71.00
14140;DHT22;7150;53.514;9.988;2023-02-28T09:07:21;9.40;69.90
14140;DHT22;7150;53.514;9.988;2023-02-28T09:09:46;9.50;69.20
14140;DHT22;7150;53.514;9.988;2023-02-28T09:12:22;9.50;68.40
14140;DHT22;7150;53.514;9.988;2023-02-28T09:14:48;9.60;67.30
14140;DHT22;7150;53.514;9.988;2023-02-28T09:17:13;9.60;66.40
14140;DHT22;7150;53.514;9.988;2023-02-28T09:19:39;9.70;65.80
14140;DHT22;7150;53.514;9.988;2023-02-28T09:22:04;9.70;65.40
14140;DHT22;7150;53.514;9.988;2023-02-28T09:24:30;9.80;65.10
14140;DHT22;7150;53.514;9.988;2023-02-28T09:26:57;9.80;64.70
14140;DHT22;7150;53.514;9.988;2023-02-28T09:29:22;9.90;64.30
14140;DHT22;7150;53.514;9.988;2023-02-28T09:31:48;9.90;64.10
14140;DHT22;7150;53.514;9.988;2023-02-28T09:34:13;9.90;63.90
14140;DHT22;7150;53.514;9.988;2023-02-28T09:36:39;10.00;62.40
14140;DHT22;7150;53.514;9.988;2023-02-28T09:39:04;10.10;61.80
14140;DHT22;7150;53.514;9.988;2023-02-28T09:41:38;10.10;60.70
14140;DHT22;7150;53.514;9.988;2023-02-28T09:44:06;10.10;59.50
14140;DHT22;7150;53.514;9.988;2023-02-28T09:46:42;10.10;58.80
14140;DHT22;7150;53.514;9.988;2023-02-28T09:49:14;10.20;58.50
14140;DHT22;7150;53.514;9.988;2023-02-28T09:52:02;10.30;58.00
14140;DHT22;7150;53.514;9.988;2023-02-28T09:54:30;10.30;57.50
14140;DHT22;7150;53.514;9.988;2023-02-28T09:57:01;10.40;57.50
14140;DHT22;7150;53.514;9.988;2023-02-28T09:59:32;10.40;57.30
14140;DHT22;7150;53.514;9.988;2023-02-28T10:02:41;10.30;56.70
14140;DHT22;7150;53.514;9.988;2023-02-28T10:05:12;10.40;56.50
14140;DHT22;7150;53.514;9.988;2023-02-28T10:10:29;10.40;56.50
14140;DHT22;7150;53.514;9.988;2023-02-28T10:13:01;10.40;56.90
14140;DHT22;7150;53.514;9.988;2023-02-28T10:15:32;10.50;57.10
14140;DHT22;7150;53.514;9.988;2023-02-28T10:18:02;10.50;57.00
14140;DHT22;7150;53.514;9.988;2023-02-28T10:20:33;10.60;57.00
14140;DHT22;7150;53.514;9.988;2023-02-28T10:23:23;10.60;57.20
14140;DHT22;7150;53.514;9.988;2023-02-28T10:25:56;10.70;57.20
14140;DHT22;7150;53.514;9.988;2023-02-28T10:28:24;10.70;56.90
14140;DHT22;7150;53.514;9.988;2023-02-28T10:30:51;10.70;56.40
14140;DHT22;7150;53.514;9.988;2023-02-28T10:33:23;10.70;56.10
14140;DHT22;7150;53.514;9.988;2023-02-28T10:35:51;10.80;56.10
14140;DHT22;7150;53.514;9.988;2023-02-28T10:38:26;10.80;56.30
14140;DHT22;7150;53.514;9.988;2023-02-28T10:41:10;10.80;56.60
14140;DHT22;7150;53.514;9.988;2023-02-28T10:43:37;10.90;56.80
14140;DHT22;7150;53.514;9.988;2023-02-28T10:48:38;10.90;56.70
14140;DHT22;7150;53.514;9.988;2023-02-28T10:51:07;10.90;57.00
14140;DHT22;7150;53.514;9.988;2023-02-28T10:53:58;11.00;57.30
14140;DHT22;7150;53.514;9.988;2023-02-28T10:56:25;11.00;57.30
14140;DHT22;7150;53.514;9.988;2023-02-28T10:59:03;11.00;57.00
14140;DHT22;7150;53.514;9.988;2023-02-28T11:01:41;11.00;57.00
14140;DHT22;7150;53.514;9.988;2023-02-28T11:04:36;11.00;56.80
14140;DHT22;7150;53.514;9.988;2023-02-28T11:07:18;11.00;56.60
14140;DHT22;7150;53.514;9.988;2023-02-28T11:09:52;11.10;56.60
14140;DHT22;7150;53.514;9.988;2023-02-28T11:12:28;11.10;56.50
14140;DHT22;7150;53.514;9.988;2023-02-28T11:15:01;11.10;56.30
14140;DHT22;7150;53.514;9.988;2023-02-28T11:17:30;11.10;56.30
14140;DHT22;7150;53.514;9.988;2023-02-28T11:20:03;11.10;56.20
14140;DHT22;7150;53.514;9.988;2023-02-28T11:22:32;11.20;56.40
14140;DHT22;7150;53.514;9.988;2023-02-28T11:25:01;11.20;56.40
14140;DHT22;7150;53.514;9.988;2023-02-28T11:29:57;11.20;56.40
14140;DHT22;7150;53.514;9.988;2023-02-28T11:32:25;11.20;56.40
14140;DHT22;7150;53.514;9.988;2023-02-28T11:35:03;11.20;56.20
14140;DHT22;7150;53.514;9.988;2023-02-28T11:37:31;11.30;56.10
14140;DHT22;7150;53.514;9.988;2023-02-28T11:39:57;11.20;56.00
14140;DHT22;7150;53.514;9.988;2023-02-28T11:46:05;11.30;56.40
14140;DHT22;7150;53.514;9.988;2023-02-28T11:51:09;11.20;56.10
14140;DHT22;7150;53.514;9.988;2023-02-28T11:56:39;11.30;56.00
14140;DHT22;7150;53.514;9.988;2023-02-28T12:10:25;11.50;56.10
14140;DHT22;7150;53.514;9.988;2023-02-28T12:15:32;11.50;55.90
14140;DHT22;7150;53.514;9.988;2023-02-28T12:18:08;11.60;55.70
14140;DHT22;7150;53.514;9.988;2023-02-28T12:20:54;11.60;55.60
14140;DHT22;7150;53.514;9.988;2023-02-28T12:29:01;11.70;56.20
14140;DHT22;7150;53.514;9.988;2023-02-28T12:31:32;11.60;55.60
14140;DHT22;7150;53.514;9.988;2023-02-28T12:34:04;11.60;54.90
14140;DHT22;7150;53.514;9.988;2023-02-28T12:36:31;11.70;54.80
14140;DHT22;7150;53.514;9.988;2023-02-28T12:39:10;11.70;54.60
14140;DHT22;7150;53.514;9.988;2023-02-28T12:42:03;11.70;53.80
14140;DHT22;7150;53.514;9.988;2023-02-28T12:47:08;11.70;54.10
14140;DHT22;7150;53.514;9.988;2023-02-28T12:49:45;11.70;54.80
14140;DHT22;7150;53.514;9.988;2023-02-28T12:52:17;11.70;54.20
14140;DHT22;7150;53.514;9.988;2023-02-28T12:57:47;11.80;54.10
14140;DHT22;7150;53.514;9.988;2023-02-28T13:00:18;11.90;54.20
14140;DHT22;7150;53.514;9.988;2023-02-28T13:10:56;11.90;54.00
14140;DHT22;7150;53.514;9.988;2023-02-28T13:13:24;11.90;53.90
14140;DHT22;7150;53.514;9.988;2023-02-28T13:18:41;12.00;53.60
14140;DHT22;7150;53.514;9.988;2023-02-28T13:21:09;12.00;53.30
14140;DHT22;7150;53.514;9.988;2023-02-28T13:28:59;12.00;53.20
14140;DHT22;7150;53.514;9.988;2023-02-28T13:31:25;12.10;53.00
14140;DHT22;7150;53.514;9.988;2023-02-28T13:36:32;12.00;52.70
14140;DHT22;7150;53.514;9.988;2023-02-28T13:39:02;12.00;52.40
14140;DHT22;7150;53.514;9.988;2023-02-28T13:49:31;12.10;53.30
14140;DHT22;7150;53.514;9.988;2023-02-28T13:57:39;12.10;54.10
14140;DHT22;7150;53.514;9.988;2023-02-28T14:00:52;12.00;53.80
14140;DHT22;7150;53.514;9.988;2023-02-28T14:06:08;12.10;53.10
14140;DHT22;7150;53.514;9.988;2023-02-28T14:08:35;12.00;53.30
14140;DHT22;7150;53.514;9.988;2023-02-28T14:11:06;12.10;53.30
14140;DHT22;7150;53.514;9.988;2023-02-28T14:13:45;12.10;53.40
14140;DHT22;7150;53.514;9.988;2023-02-28T14:16:23;12.10;53.70
14140;DHT22;7150;53.514;9.988;2023-02-28T14:19:00;12.10;53.90
14140;DHT22;7150;53.514;9.988;2023-02-28T14:21:33;12.10;53.80
14140;DHT22;7150;53.514;9.988;2023-02-28T14:27:00;12.20;53.20
14140;DHT22;7150;53.514;9.988;2023-02-28T14:30:12;12.20;53.10
14140;DHT22;7150;53.514;9.988;2023-02-28T14:36:01;12.20;52.80
14140;DHT22;7150;53.514;9.988;2023-02-28T14:38:31;12.20;52.60
14140;DHT22;7150;53.514;9.988;2023-02-28T14:40:58;12.30;52.60
14140;DHT22;7150;53.514;9.988;2023-02-28T14:43:27;12.30;53.00
14140;DHT22;7150;53.514;9.988;2023-02-28T14:45:58;12.30;53.20
14140;DHT22;7150;53.514;9.988;2023-02-28T14:48:24;12.30;53.30
14140;DHT22;7150;53.514;9.988;2023-02-28T14:50:53;12.30;53.70
14140;DHT22;7150;53.514;9.988;2023-02-28T14:53:22;12.20;53.90
14140;DHT22;7150;53.514;9.988;2023-02-28T14:55:49;12.20;54.20
14140;DHT22;7150;53.514;9.988;2023-02-28T14:58:33;12.30;54.30
14140;DHT22;7150;53.514;9.988;2023-02-28T15:01:01;12.20;53.90
14140;DHT22;7150;53.514;9.988;2023-02-28T15:03:35;12.30;53.90
14140;DHT22;7150;53.514;9.988;2023-02-28T15:06:11;12.20;53.70
14140;DHT22;7150;53.514;9.988;2023-02-28T15:08:37;12.20;53.40
14140;DHT22;7150;53.514;9.988;2023-02-28T15:11:19;12.20;53.20
14140;DHT22;7150;53.514;9.988;2023-02-28T15:13:52;12.30;53.10
14140;DHT22;7150;53.514;9.988;2023-02-28T15:16:39;12.20;53.20
14140;DHT22;7150;53.514;9.988;2023-02-28T15:19:23;12.20;53.30
14140;DHT22;7150;53.514;9.988;2023-02-28T15:21:54;12.20;53.60
14140;DHT22;7150;53.514;9.988;2023-02-28T15:24:29;12.20;53.80
14140;DHT22;7150;53.514;9.988;2023-02-28T15:26:58;12.20;54.20
14140;DHT22;7150;53.514;9.988;2023-02-28T15:29:27;12.20;54.70
14140;DHT22;7150;53.514;9.988;2023-02-28T15:32:06;12.10;54.80
14140;DHT22;7150;53.514;9.988;2023-02-28T15:34:43;12.10;54.90
14140;DHT22;7150;53.514;9.988;2023-02-28T15:37:30;12.20;55.00
14140;DHT22;7150;53.514;9.988;2023-02-28T15:42:30;12.10;55.40
14140;DHT22;7150;53.514;9.988;2023-02-28T15:44:57;12.10;55.50
14140;DHT22;7150;53.514;9.988;2023-02-28T15:47:24;12.10;55.60
14140;DHT22;7150;53.514;9.988;2023-02-28T15:49:53;12.00;55.70
14140;DHT22;7150;53.514;9.988;2023-02-28T15:52:33;12.00;55.70
14140;DHT22;7150;53.514;9.988;2023-02-28T15:55:22;12.00;55.60
14140;DHT22;7150;53.514;9.988;2023-02-28T15:57:51;12.00;55.60
14140;DHT22;7150;53.514;9.988;2023-02-28T16:00:23;12.00;55.60
14140;DHT22;7150;53.514;9.988;2023-02-28T16:02:50;12.00;55.60
14140;DHT22;7150;53.514;9.988;2023-02-28T16:05:21;12.00;55.90
14140;DHT22;7150;53.514;9.988;2023-02-28T16:07:57;12.00;55.90
14140;DHT22;7150;53.514;9.988;2023-02-28T16:10:24;11.90;56.00
14140;DHT22;7150;53.514;9.988;2023-02-28T16:12:54;11.90;56.30
14140;DHT22;7150;53.514;9.988;2023-02-28T16:15:26;11.90;56.40
14140;DHT22;7150;53.514;9.988;2023-02-28T16:17:53;11.90;56.70
14140;DHT22;7150;53.514;9.988;2023-02-28T16:20:23;11.80;57.30
14140;DHT22;7150;53.514;9.988;2023-02-28T16:22:49;11.80;56.70
14140;DHT22;7150;53.514;9.988;2023-02-28T16:25:18;11.70;56.60
14140;DHT22;7150;53.514;9.988;2023-02-28T16:27:47;11.70;57.00
14140;DHT22;7150;53.514;9.988;2023-02-28T16:30:32;11.70;57.00
14140;DHT22;7150;53.514;9.988;2023-02-28T16:32:58;11.70;57.10
14140;DHT22;7150;53.514;9.988;2023-02-28T16:35:24;11.60;57.20
14140;DHT22;7150;53.514;9.988;2023-02-28T16:37:53;11.60;57.20
14140;DHT22;7150;53.514;9.988;2023-02-28T16:40:24;11.60;57.30
14140;DHT22;7150;53.514;9.988;2023-02-28T16:42:53;11.60;57.60
14140;DHT22;7150;53.514;9.988;2023-02-28T16:45:23;11.60;57.60
14140;DHT22;7150;53.514;9.988;2023-02-28T16:47:50;11.50;57.50
14140;DHT22;7150;53.514;9.988;2023-02-28T16:50:22;11.50;57.70
14140;DHT22;7150;53.514;9.988;2023-02-28T16:52:48;11.50;57.80
14140;DHT22;7150;53.514;9.988;2023-02-28T16:55:15;11.50;58.10
14140;DHT22;7150;53.514;9.988;2023-02-28T16:57:41;11.40;58.30
14140;DHT22;7150;53.514;9.988;2023-02-28T17:00:12;11.40;58.50
14140;DHT22;7150;53.514;9.988;2023-02-28T17:02:38;11.40;58.60
14140;DHT22;7150;53.514;9.988;2023-02-28T17:05:04;11.40;58.70
14140;DHT22;7150;53.514;9.988;2023-02-28T17:07:30;11.30;58.70
14140;DHT22;7150;53.514;9.988;2023-02-28T17:09:55;11.30;58.60
14140;DHT22;7150;53.514;9.988;2023-02-28T17:12:21;11.30;58.80
14140;DHT22;7150;53.514;9.988;2023-02-28T17:14:46;11.20;59.00
14140;DHT22;7150;53.514;9.988;2023-02-28T17:17:21;11.20;59.20
14140;DHT22;7150;53.514;9.988;2023-02-28T17:19:47;11.10;59.10
14140;DHT22;7150;53.514;9.988;2023-02-28T17:22:12;11.10;59.30
14140;DHT22;7150;53.514;9.988;2023-02-28T17:24:38;11.10;59.40
14140;DHT22;7150;53.514;9.988;2023-02-28T17:27:04;11.10;60.10
14140;DHT22;7150;53.514;9.988;2023-02-28T17:29:29;11.00;59.60
14140;DHT22;7150;53.514;9.988;2023-02-28T17:31:55;11.00;59.60
14140;DHT22;7150;53.514;9.988;2023-02-28T17:34:21;11.00;59.80
14140;DHT22;7150;53.514;9.988;2023-02-28T17:36:48;10.90;59.90
14140;DHT22;7150;53.514;9.988;2023-02-28T17:39:15;10.90;59.80
14140;DHT22;7150;53.514;9.988;2023-02-28T17:41:44;10.90;60.00
14140;DHT22;7150;53.514;9.988;2023-02-28T17:44:10;10.80;59.90
14140;DHT22;7150;53.514;9.988;2023-02-28T17:46:36;10.80;60.00
14140;DHT22;7150;53.514;9.988;2023-02-28T17:49:01;10.80;60.10
14140;DHT22;7150;53.514;9.988;2023-02-28T17:51:27;10.80;60.90
14140;DHT22;7150;53.514;9.988;2023-02-28T17:53:52;10.80;60.30
14140;DHT22;7150;53.514;9.988;2023-02-28T17:56:23;10.70;60.30
14140;DHT22;7150;53.514;9.988;2023-02-28T17:58:49;10.70;60.40
14140;DHT22;7150;53.514;9.988;2023-02-28T18:01:16;10.60;60.40